Time;durP1;ratioP1;P1;durP2;ratioP2;P2;SDS_P1;SDS_P2;PMS_P1;PMS_P2;Temp;Humidity;BMP_temperature;BMP_pressure;BME280_temperature;BME280_humidity;BME280_pressure;Samples;Min_cycle;Max_cycle;Signal;HPM_P1;HPM_P2
2022/04/22 00:00:32;;;;;;;13.88;6.17;;;;;;;9.29;83.67;100299.85;1578812;90;26408;-75
2022/04/22 00:03:01;;;;;;;9.63;6.33;;;;;;;9.31;83.67;100296.98;1569999;90;26922;-75
2022/04/22 00:05:27;;;;;;;8.13;6.03;;;;;;;9.29;83.67;100293.67;1568532;89;25900;-75
2022/04/22 00:07:54;;;;;;;12.73;6.17;;;;;;;9.29;83.69;100295.00;1568309;90;25897;-76
2022/04/22 00:10:20;;;;;;;11.05;6.75;;;;;;;9.29;83.70;100292.33;1568255;89;26789;-75
2022/04/22 00:12:46;;;;;;;9.68;6.33;;;;;;;9.26;83.67;100293.53;1567105;89;26497;-75
2022/04/22 00:15:13;;;;;;;9.83;6.10;;;;;;;9.23;83.77;100283.23;1565504;90;27487;-76
2022/04/22 00:17:41;;;;;;;10.03;6.40;;;;;;;9.24;83.87;100284.03;1575469;90;26177;-75
2022/04/22 00:20:11;;;;;;;10.03;6.12;;;;;;;9.21;83.88;100279.08;1568649;89;25855;-76
2022/04/22 00:22:39;;;;;;;10.45;5.67;;;;;;;9.15;83.97;100280.63;1578397;90;26592;-76
2022/04/22 00:25:09;;;;;;;11.55;5.92;;;;;;;9.11;84.20;100279.88;1568822;90;26478;-77
2022/04/22 00:27:37;;;;;;;7.92;6.53;;;;;;;9.12;84.33;100285.53;1576467;90;28405;-75
2022/04/22 00:30:07;;;;;;;9.75;6.10;;;;;;;9.09;84.37;100278.70;1576186;90;25823;-76
2022/04/22 00:32:34;;;;;;;9.93;5.97;;;;;;;9.06;84.37;100287.61;1570006;90;25919;-75
2022/04/22 00:35:03;;;;;;;9.58;6.12;;;;;;;9.01;84.53;100286.81;1554407;90;25924;-76
2022/04/22 00:37:29;;;;;;;10.00;6.83;;;;;;;8.97;84.53;100282.86;1572157;90;26103;-75
2022/04/22 00:39:55;;;;;;;6.50;5.50;;;;;;;8.93;84.71;100279.41;1555115;90;28482;-76
2022/04/22 00:42:22;;;;;;;7.58;5.80;;;;;;;8.89;84.79;100278.95;1555752;90;25873;-75
2022/04/22 00:44:48;;;;;;;10.03;6.15;;;;;;;8.89;85.00;100282.12;1568982;90;25789;-75
2022/04/22 00:47:14;;;;;;;9.18;6.95;;;;;;;8.89;85.03;100278.11;1564273;90;26564;-76
2022/04/22 00:49:41;;;;;;;9.93;6.40;;;;;;;8.88;85.04;100277.28;1575544;90;25857;-75
2022/04/22 00:52:08;;;;;;;12.30;7.53;;;;;;;8.86;85.13;100275.30;1569932;89;27479;-76
2022/04/22 00:54:34;;;;;;;13.85;8.88;;;;;;;8.86;85.15;100279.80;1568757;89;25346;-75
2022/04/22 00:57:00;;;;;;;14.38;9.00;;;;;;;8.85;85.14;100280.33;1574056;89;25786;-76
2022/04/22 00:59:30;;;;;;;14.87;8.95;;;;;;;8.84;85.18;100279.16;1563861;90;25949;-76
2022/04/22 01:01:56;;;;;;;19.25;10.00;;;;;;;8.83;85.09;100286.33;1575198;90;26348;-75
2022/04/22 01:09:52;;;;;;;13.95;9.18;;;;;;;8.78;85.37;100289.24;1568448;89;25941;-75
2022/04/22 01:12:19;;;;;;;14.87;10.05;;;;;;;8.77;85.54;100286.27;1562641;90;26614;-76
2022/04/22 01:14:46;;;;;;;13.93;9.33;;;;;;;8.76;85.63;100290.77;1558358;91;25847;-76
2022/04/22 01:17:12;;;;;;;16.45;9.93;;;;;;;8.75;85.81;100297.11;1558721;91;28371;-75
2022/04/22 01:19:38;;;;;;;15.55;10.03;;;;;;;8.72;85.94;100297.49;1558633;91;25858;-76
2022/04/22 01:22:05;;;;;;;14.38;10.05;;;;;;;8.73;86.08;100291.62;1548557;91;25889;-75
2022/04/22 01:24:32;;;;;;;15.20;9.93;;;;;;;8.73;86.19;100298.30;1568672;90;26066;-75
2022/04/22 01:26:58;;;;;;;17.37;10.55;;;;;;;8.73;86.35;100300.47;1564174;90;25879;-76
2022/04/22 01:29:25;;;;;;;21.60;10.20;;;;;;;8.75;86.33;100300.27;1571244;90;27471;-75
2022/04/22 01:31:52;;;;;;;15.88;9.53;;;;;;;8.77;86.39;100298.28;1566853;89;25840;-75
2022/04/22 01:34:18;;;;;;;17.37;10.40;;;;;;;8.77;86.60;100295.61;1572138;89;26085;-76
2022/04/22 01:36:44;;;;;;;17.90;10.72;;;;;;;8.78;86.71;100291.91;1558878;90;26578;-76
2022/04/22 01:39:10;;;;;;;17.30;10.38;;;;;;;8.79;86.77;100285.05;1567064;89;25878;-75
2022/04/22 01:41:37;;;;;;;12.85;9.33;;;;;;;8.81;86.93;100284.88;1564682;90;28449;-75
2022/04/22 01:44:04;;;;;;;15.03;9.13;;;;;;;8.82;86.89;100290.03;1568596;89;25813;-76
2022/04/22 01:46:30;;;;;;;16.73;9.05;;;;;;;8.83;86.97;100288.20;1569357;89;25883;-75
2022/04/22 01:48:58;;;;;;;13.22;8.33;;;;;;;8.83;87.05;100291.67;1566367;90;25947;-76
2022/04/22 01:51:24;;;;;;;12.75;8.60;;;;;;;8.84;87.18;100295.18;1569894;89;25910;-75
2022/04/22 01:53:51;;;;;;;13.78;8.88;;;;;;;8.82;87.33;100299.38;1558630;91;27533;-75
2022/04/22 01:56:17;;;;;;;16.82;8.53;;;;;;;8.81;87.57;100297.70;1558880;91;25960;-76
2022/04/22 01:58:44;;;;;;;14.18;9.18;;;;;;;8.79;87.71;100295.73;1558847;91;25878;-76
2022/04/22 02:01:10;;;;;;;14.28;9.38;;;;;;;8.79;87.93;100296.26;1568956;90;26577;-75
2022/04/22 02:03:36;;;;;;;16.42;9.98;;;;;;;8.79;87.94;100293.59;1568606;89;26340;-75
2022/04/22 02:06:04;;;;;;;20.68;10.65;;;;;;;8.79;88.35;100294.92;1574395;90;27453;-76
2022/04/22 02:08:31;;;;;;;16.55;9.55;;;;;;;8.78;88.35;100296.75;1563420;90;25895;-76
2022/04/22 02:10:57;;;;;;;13.48;9.13;;;;;;;8.79;88.48;100294.39;1573153;90;26520;-75
2022/04/22 02:13:23;;;;;;;13.60;9.00;;;;;;;8.81;88.71;100299.57;1570106;90;25866;-75
2022/04/22 02:15:51;;;;;;;14.47;9.40;;;;;;;8.80;89.07;100292.55;1567914;90;25808;-75
2022/04/22 02:18:18;;;;;;;13.03;9.40;;;;;;;8.75;89.51;100298.44;1551263;91;28274;-75
2022/04/22 02:20:44;;;;;;;14.00;8.90;;;;;;;8.73;89.82;100303.64;1553446;91;25944;-76
2022/04/22 02:23:10;;;;;;;17.82;9.88;;;;;;;8.70;90.19;100297.34;1565440;91;25827;-75
2022/04/22 02:25:37;;;;;;;14.25;9.95;;;;;;;8.64;90.74;100302.88;1556282;91;25924;-76
2022/04/22 02:30:48;;;;;;;13.45;9.48;;;;;;;8.54;91.29;100289.81;1558766;91;28414;-76
2022/04/22 02:33:14;;;;;;;16.42;10.70;;;;;;;8.52;91.57;100297.67;1558977;91;26044;-75
2022/04/22 02:35:41;;;;;;;15.00;9.50;;;;;;;8.49;91.83;100297.52;1558685;90;25827;-75
2022/04/22 02:38:07;;;;;;;14.20;10.13;;;;;;;8.48;92.10;100299.05;1566359;90;26564;-75
2022/04/22 02:46:03;;;;;;;14.15;10.48;;;;;;;8.44;92.79;100298.59;1569210;90;25875;-76
2022/04/22 02:48:29;;;;;;;16.57;10.48;;;;;;;8.41;92.97;100297.59;1568535;89;25883;-75
2022/04/22 02:50:55;;;;;;;12.53;10.43;;;;;;;8.42;93.22;100292.60;1567000;89;26433;-75
2022/04/22 02:53:22;;;;;;;16.17;10.43;;;;;;;8.39;93.51;100290.77;1577432;89;25839;-75
2022/04/22 02:55:51;;;;;;;13.85;10.00;;;;;;;8.36;93.87;100293.83;1574627;89;28278;-76
2022/04/22 02:58:18;;;;;;;15.18;10.93;;;;;;;8.35;94.13;100293.48;1573690;90;25949;-76
2022/04/22 03:00:45;;;;;;;18.00;11.25;;;;;;;8.32;94.25;100292.50;1573299;90;26591;-76
2022/04/22 03:03:11;;;;;;;15.20;11.00;;;;;;;8.32;94.28;100294.66;1573204;90;25856;-75
2022/04/22 03:05:38;;;;;;;16.57;11.00;;;;;;;8.32;94.41;100289.33;1574237;90;25441;-76
2022/04/22 03:08:06;;;;;;;14.43;11.28;;;;;;;8.32;94.58;100287.99;1574338;90;28232;-75
2022/04/22 03:10:32;;;;;;;14.40;10.68;;;;;;;8.32;94.70;100293.33;1571362;90;25826;-75
2022/04/22 03:12:58;;;;;;;16.80;10.85;;;;;;;8.31;94.70;100286.35;1568293;90;25336;-75
2022/04/22 03:15:27;;;;;;;16.00;11.35;;;;;;;8.31;94.97;100287.69;1573579;90;25916;-76
2022/04/22 03:17:53;;;;;;;15.63;11.57;;;;;;;8.32;95.09;100285.33;1566792;90;26167;-75
2022/04/22 03:20:19;;;;;;;16.55;10.98;;;;;;;8.29;95.27;100281.70;1561260;89;27505;-76
2022/04/22 03:22:46;;;;;;;15.95;11.53;;;;;;;8.30;95.27;100288.68;1564462;90;25956;-75
2022/04/22 03:25:12;;;;;;;17.60;11.50;;;;;;;8.30;95.29;100278.01;1568680;90;26658;-75
2022/04/22 03:27:38;;;;;;;17.00;12.05;;;;;;;8.30;95.41;100279.34;1578083;89;25930;-76
2022/04/22 03:30:06;;;;;;;19.32;12.85;;;;;;;8.30;95.60;100281.17;1564165;90;25349;-75
2022/04/22 03:32:32;;;;;;;18.82;12.55;;;;;;;8.29;95.62;100283.03;1565177;90;28307;-75
2022/04/22 03:34:59;;;;;;;18.82;11.68;;;;;;;8.27;95.76;100282.39;1559268;90;25858;-76
2022/04/22 03:37:27;;;;;;;17.42;12.58;;;;;;;8.27;95.98;100282.89;1571815;89;25841;-75
2022/04/22 03:39:53;;;;;;;13.70;10.90;;;;;;;8.27;96.09;100281.55;1563562;90;25915;-75
2022/04/22 03:42:19;;;;;;;15.98;10.98;;;;;;;8.25;96.75;100287.55;1562524;90;25829;-76
2022/04/22 03:44:45;;;;;;;18.42;12.00;;;;;;;8.22;96.48;100288.72;1566588;89;27732;-75
2022/04/22 03:47:11;;;;;;;15.30;11.83;;;;;;;8.23;96.39;100286.36;1564394;90;26423;-76
2022/04/22 03:49:38;;;;;;;12.98;10.10;;;;;;;8.24;96.48;100285.86;1575019;90;26577;-75
2022/04/22 03:52:05;;;;;;;15.28;11.35;;;;;;;8.24;96.94;100289.38;1570121;89;25793;-76
2022/04/22 03:54:31;;;;;;;15.13;10.53;;;;;;;8.22;96.84;100292.73;1578767;89;26014;-75
2022/04/22 03:59:42;;;;;;;14.33;9.80;;;;;;;8.22;96.89;100296.73;1566091;90;26005;-75
2022/04/22 04:02:08;;;;;;;13.20;8.95;;;;;;;8.23;97.13;100301.56;1578846;89;25907;-75
2022/04/22 04:04:35;;;;;;;12.55;8.23;;;;;;;8.23;97.24;100293.03;1570375;89;26586;-76
2022/04/22 04:07:01;;;;;;;14.95;8.08;;;;;;;8.24;97.10;100301.37;1554200;90;25870;-76
2022/04/22 04:17:41;;;;;;;9.13;6.72;;;;;;;8.33;96.79;100306.18;1573946;90;26540;-75
2022/04/22 04:25:39;;;;;;;7.60;6.25;;;;;;;8.33;96.80;100312.35;1498590;95;26613;-76
2022/04/22 04:28:09;;;;;;;9.63;6.30;;;;;;;8.34;96.75;100309.19;1544008;89;25857;-75
2022/04/22 04:30:34;;;;;;;11.63;5.90;;;;;;;8.35;96.78;100311.66;1570321;89;26520;-76
2022/04/22 04:33:00;;;;;;;8.68;5.62;;;;;;;8.36;96.89;100315.17;1570717;90;26711;-75
2022/04/22 04:35:27;;;;;;;7.62;5.03;;;;;;;8.34;96.89;100318.53;1563719;89;27636;-75
2022/04/22 04:37:53;;;;;;;6.35;5.15;;;;;;;8.33;96.96;100322.19;1566810;89;25894;-76
2022/04/22 04:40:19;;;;;;;6.53;5.50;;;;;;;8.34;96.83;100314.00;1569248;89;25770;-76
2022/04/22 04:42:45;;;;;;;8.63;5.95;;;;;;;8.36;96.89;100325.31;1569431;90;26561;-76
2022/04/22 04:45:12;;;;;;;8.75;5.22;;;;;;;8.37;96.81;100324.33;1566260;90;26138;-75
2022/04/22 04:47:41;;;;;;;8.33;5.15;;;;;;;8.39;96.79;100326.80;1567575;90;27448;-76
2022/04/22 04:50:09;;;;;;;7.25;4.85;;;;;;;8.40;96.74;100322.61;1566883;90;26621;-76
2022/04/22 04:52:37;;;;;;;6.30;5.15;;;;;;;8.41;96.80;100324.29;1575136;89;25864;-75
2022/04/22 04:55:10;;;;;;;8.83;5.70;;;;;;;8.43;96.60;100317.42;1566781;90;25801;-75
2022/04/22 04:57:37;;;;;;;7.03;4.47;;;;;;;8.48;96.61;100321.23;1555113;91;26603;-76
2022/04/22 05:00:05;;;;;;;6.37;4.42;;;;;;;8.54;96.73;100331.19;1556628;91;27575;-76
2022/04/22 05:02:33;;;;;;;6.12;4.78;;;;;;;8.58;96.68;100322.30;1552502;91;25955;-75
2022/04/22 05:04:59;;;;;;;4.85;4.40;;;;;;;8.62;96.44;100325.46;1551252;91;26040;-75
2022/04/22 05:07:25;;;;;;;5.70;4.22;;;;;;;8.67;96.43;100315.88;1581799;90;25848;-76
2022/04/22 05:09:51;;;;;;;6.75;4.62;;;;;;;8.73;96.49;100311.14;1565627;90;25834;-76
2022/04/22 05:12:17;;;;;;;5.65;4.58;;;;;;;8.80;96.51;100310.75;1565181;90;27469;-75
2022/04/22 05:14:48;;;;;;;4.22;3.60;;;;;;;8.86;96.50;100312.69;1574624;90;25847;-76
2022/04/22 05:17:12;;;;;;;4.20;3.65;;;;;;;8.91;96.32;100313.48;1553888;90;26043;-76
2022/04/22 05:19:38;;;;;;;5.55;4.25;;;;;;;8.90;96.06;100321.99;1574599;90;25866;-76
2022/04/22 05:22:05;;;;;;;4.08;3.35;;;;;;;8.90;96.03;100331.34;1556995;91;25998;-75
2022/04/22 05:24:32;;;;;;;4.92;3.40;;;;;;;8.88;95.84;100333.86;1578214;90;27541;-76
2022/04/22 05:26:59;;;;;;;5.10;3.50;;;;;;;8.86;95.63;100335.89;1578473;90;25969;-76
2022/04/22 05:34:54;;;;;;;4.22;3.27;;;;;;;8.96;96.11;100335.95;1572502;90;26500;-76
2022/04/22 05:37:21;;;;;;;4.10;3.20;;;;;;;8.98;95.71;100341.94;1574043;90;27474;-75
2022/04/22 05:39:47;;;;;;;3.87;2.77;;;;;;;8.99;95.31;100334.76;1570740;90;26439;-75
2022/04/22 05:42:13;;;;;;;4.62;3.25;;;;;;;9.05;95.47;100336.20;1574864;90;26225;-76
2022/04/22 05:44:40;;;;;;;4.20;3.40;;;;;;;9.18;95.50;100331.55;1542567;91;26719;-75
2022/04/22 05:47:06;;;;;;;3.90;3.17;;;;;;;9.31;94.36;100334.41;1584946;89;25801;-76
2022/04/22 05:49:33;;;;;;;4.62;3.17;;;;;;;9.37;93.06;100340.34;1569770;89;28072;-76
2022/04/22 05:51:59;;;;;;;5.12;3.22;;;;;;;9.46;93.45;100342.41;1576888;90;26011;-76
2022/04/22 05:54:25;;;;;;;7.45;5.53;;;;;;;9.58;93.34;100351.11;1567180;90;26634;-76
2022/04/22 05:56:51;;;;;;;4.78;3.87;;;;;;;9.67;92.37;100349.99;1569438;90;25856;-76
2022/04/22 05:59:17;;;;;;;3.60;3.30;;;;;;;9.76;92.30;100348.05;1568860;90;25827;-75
2022/04/22 06:01:44;;;;;;;3.87;3.42;;;;;;;9.77;90.89;100345.70;1571824;90;27545;-78
2022/04/22 06:04:10;;;;;;;5.78;5.00;;;;;;;9.82;90.94;100355.31;1562685;90;25887;-76
2022/04/22 06:06:36;;;;;;;5.60;5.08;;;;;;;9.84;88.50;100342.58;1578836;90;25858;-75
2022/04/22 06:11:47;;;;;;;8.23;7.42;;;;;;;9.93;86.78;100365.03;1559191;90;25835;-77
2022/04/22 06:14:13;;;;;;;7.47;6.67;;;;;;;10.00;87.51;100363.77;1570850;90;27481;-76
2022/04/22 06:16:41;;;;;;;8.55;5.30;;;;;;;10.04;87.17;100375.75;1565609;90;25941;-76
2022/04/22 06:19:07;;;;;;;9.93;6.83;;;;;;;10.05;86.08;100376.09;1580097;90;25314;-76
2022/04/22 06:21:33;;;;;;;8.75;6.50;;;;;;;10.03;86.46;100386.13;1542214;91;25804;-77
2022/04/22 06:24:00;;;;;;;8.78;6.28;;;;;;;10.02;85.36;100383.14;1573436;89;25772;-76
2022/04/22 06:26:26;;;;;;;6.78;5.70;;;;;;;9.94;85.15;100388.08;1545198;91;28261;-76
2022/04/22 06:28:52;;;;;;;8.55;6.03;;;;;;;9.90;84.66;100385.46;1568877;90;25915;-77
2022/04/22 06:31:19;;;;;;;7.45;6.45;;;;;;;9.89;84.24;100379.80;1568737;89;26490;-77
2022/04/22 06:33:46;;;;;;;8.13;6.67;;;;;;;9.86;84.68;100372.64;1568385;89;25865;-76
2022/04/22 06:36:14;;;;;;;7.30;5.92;;;;;;;9.90;84.61;100369.94;1571899;90;26344;-76
2022/04/22 06:38:44;;;;;;;8.10;6.08;;;;;;;9.97;85.18;100375.67;1559226;91;27480;-76
2022/04/22 06:46:41;;;;;;;9.53;7.22;;;;;;;10.22;83.78;100378.88;1558831;91;25862;-76
2022/04/22 06:49:11;;;;;;;9.18;6.95;;;;;;;10.20;82.26;100389.45;1547185;91;26670;-76
2022/04/22 06:51:41;;;;;;;7.22;6.53;;;;;;;10.19;81.97;100392.63;1583799;89;27663;-76
2022/04/22 06:54:07;;;;;;;9.40;7.30;;;;;;;10.21;82.02;100389.26;1568061;90;26534;-76
2022/04/22 06:56:39;;;;;;;10.38;7.70;;;;;;;10.33;82.53;100386.39;1554223;91;26541;-77
2022/04/22 06:59:06;;;;;;;8.15;6.40;;;;;;;10.38;82.78;100389.34;1562607;90;25961;-76
2022/04/22 07:01:34;;;;;;;9.60;6.87;;;;;;;10.48;82.58;100393.02;1570218;90;25346;-76
2022/04/22 07:04:00;;;;;;;7.45;6.20;;;;;;;10.64;82.87;100390.11;1570774;90;27502;-76
2022/04/22 07:06:27;;;;;;;7.10;5.87;;;;;;;10.75;81.67;100390.42;1561865;89;25834;-76
2022/04/22 07:08:56;;;;;;;7.75;5.90;;;;;;;10.82;80.01;100385.09;1566701;90;25739;-76
2022/04/22 07:11:26;;;;;;;7.95;5.78;;;;;;;10.91;79.15;100387.13;1566932;90;26587;-77
2022/04/22 07:13:59;;;;;;;8.70;6.17;;;;;;;10.89;80.31;100380.63;1566044;90;26317;-76
2022/04/22 07:16:26;;;;;;;7.53;5.47;;;;;;;10.88;79.27;100382.47;1564396;90;27534;-76
2022/04/22 07:18:53;;;;;;;9.90;7.05;;;;;;;10.84;79.48;100384.42;1564352;90;26418;-76
2022/04/22 07:21:21;;;;;;;8.40;7.22;;;;;;;10.83;78.80;100381.41;1569633;89;25817;-77
2022/04/22 07:23:48;;;;;;;10.00;6.70;;;;;;;10.85;78.29;100372.66;1568276;89;26258;-77
2022/04/22 07:26:18;;;;;;;7.35;6.10;;;;;;;10.90;77.51;100376.11;1578906;89;25324;-76
2022/04/22 07:28:48;;;;;;;7.05;5.53;;;;;;;10.90;76.66;100373.42;1570673;89;27485;-76
2022/04/22 07:31:19;;;;;;;5.97;5.08;;;;;;;10.91;75.78;100372.39;1573554;90;25908;-76
2022/04/22 07:33:46;;;;;;;5.97;5.35;;;;;;;10.86;75.17;100376.48;1565068;90;25768;-76
2022/04/22 07:36:13;;;;;;;5.83;5.22;;;;;;;10.84;74.69;100380.41;1567179;90;26487;-76
2022/04/22 07:38:40;;;;;;;7.12;5.72;;;;;;;10.88;74.99;100388.37;1569369;90;26475;-76
2022/04/22 07:41:08;;;;;;;8.23;5.75;;;;;;;10.91;72.06;100391.14;1564803;90;27481;-76
2022/04/22 07:49:05;;;;;;;6.80;5.00;;;;;;;11.41;74.18;100376.16;1570245;89;26695;-76
2022/04/22 07:51:32;;;;;;;6.37;4.85;;;;;;;11.58;73.29;100381.52;1568946;90;26012;-76
2022/04/22 07:53:58;;;;;;;5.45;4.47;;;;;;;11.73;70.40;100378.22;1578485;90;27345;-77
2022/04/22 07:56:25;;;;;;;7.28;5.15;;;;;;;11.75;72.19;100380.19;1569877;90;25763;-77
2022/04/22 07:58:53;;;;;;;5.05;4.40;;;;;;;11.77;70.80;100382.66;1567422;90;25763;-77
2022/04/22 08:01:19;;;;;;;5.75;4.62;;;;;;;11.74;70.37;100391.12;1578905;90;26288;-77
2022/04/22 08:03:45;;;;;;;6.90;5.80;;;;;;;11.61;69.45;100390.52;1569846;90;26061;-76
2022/04/22 08:06:13;;;;;;;6.92;6.08;;;;;;;11.52;69.79;100391.20;1578866;90;27473;-76
2022/04/22 08:08:40;;;;;;;5.90;5.03;;;;;;;11.52;69.03;100387.17;1568874;89;26447;-76
2022/04/22 08:11:07;;;;;;;6.08;5.47;;;;;;;11.48;69.62;100387.22;1578879;89;25325;-77
2022/04/22 08:13:35;;;;;;;5.08;4.47;;;;;;;11.55;70.53;100387.27;1568604;89;26490;-77
2022/04/22 08:16:01;;;;;;;10.60;6.58;;;;;;;11.75;70.67;100389.58;1569225;90;25826;-76
2022/04/22 08:18:27;;;;;;;5.55;4.72;;;;;;;11.91;71.13;100394.59;1578818;89;27557;-76
2022/04/22 08:20:53;;;;;;;5.83;3.98;;;;;;;12.00;69.06;100402.79;1560376;90;26005;-76
2022/04/22 08:23:21;;;;;;;5.53;4.20;;;;;;;12.02;67.56;100394.02;1572925;89;25962;-77
2022/04/22 08:25:47;;;;;;;7.08;4.42;;;;;;;11.90;67.63;100400.17;1573883;90;26807;-76
2022/04/22 08:28:13;;;;;;;6.72;4.65;;;;;;;11.77;65.87;100402.78;1567725;90;26001;-76
2022/04/22 08:30:40;;;;;;;6.12;4.45;;;;;;;11.65;67.36;100402.51;1577555;89;27671;-76
2022/04/22 08:33:06;;;;;;;5.37;4.35;;;;;;;11.63;67.65;100402.69;1569279;90;26012;-76
2022/04/22 08:35:37;;;;;;;4.97;4.33;;;;;;;11.60;66.63;100413.83;1564286;89;25911;-76
2022/04/22 08:38:06;;;;;;;5.10;4.22;;;;;;;11.52;65.89;100412.66;1563519;90;26542;-76
2022/04/22 08:40:33;;;;;;;7.85;4.25;;;;;;;11.44;65.92;100403.94;1568923;90;25915;-76
2022/04/22 08:43:01;;;;;;;8.13;4.83;;;;;;;11.53;67.01;100401.39;1543921;90;27491;-76
2022/04/22 08:45:28;;;;;;;7.17;4.58;;;;;;;11.64;65.75;100399.49;1563611;90;25911;-76
2022/04/22 08:50:42;;;;;;;5.50;4.97;;;;;;;11.97;66.77;100392.47;1563481;90;26145;-76
2022/04/22 08:53:12;;;;;;;6.12;4.47;;;;;;;12.02;65.21;100395.36;1546977;90;25878;-76
2022/04/22 08:55:41;;;;;;;5.35;4.60;;;;;;;11.99;64.61;100405.17;1539180;90;27483;-76
2022/04/22 08:58:09;;;;;;;6.45;4.08;;;;;;;11.86;64.40;100404.28;1575506;90;26013;-77
2022/04/22 09:00:41;;;;;;;6.67;4.80;;;;;;;11.74;65.02;100393.81;1567769;90;25889;-76
2022/04/22 09:03:09;;;;;;;4.87;4.47;;;;;;;11.70;65.95;100398.73;1553850;91;26218;-75
2022/04/22 09:05:35;;;;;;;4.83;4.42;;;;;;;11.78;66.75;100399.09;1576607;89;25922;-76
2022/04/22 09:08:02;;;;;;;4.78;4.12;;;;;;;11.78;65.02;100395.91;1583840;90;28276;-76
2022/04/22 09:10:28;;;;;;;5.45;4.30;;;;;;;11.73;65.91;100394.31;1583907;90;25870;-76
2022/04/22 09:12:57;;;;;;;6.25;4.80;;;;;;;11.75;65.74;100401.66;1562463;90;25840;-76
2022/04/22 09:15:27;;;;;;;5.00;4.40;;;;;;;11.79;65.11;100401.56;1584395;90;25879;-76
2022/04/22 09:17:57;;;;;;;5.53;4.55;;;;;;;11.77;64.05;100404.97;1583602;90;26059;-77
2022/04/22 09:20:28;;;;;;;5.42;4.62;;;;;;;11.70;64.43;100401.95;1583932;90;27496;-77
2022/04/22 09:22:56;;;;;;;5.03;4.35;;;;;;;11.63;63.22;100404.02;1558597;90;25820;-77
2022/04/22 09:25:23;;;;;;;5.75;4.17;;;;;;;11.55;63.49;100403.36;1541168;91;25807;-76
2022/04/22 09:27:50;;;;;;;4.90;4.50;;;;;;;11.55;64.11;100401.51;1585853;89;25860;-76
2022/04/22 09:30:16;;;;;;;5.05;4.55;;;;;;;11.73;65.54;100397.50;1584250;89;25808;-75
2022/04/22 09:32:44;;;;;;;5.17;4.62;;;;;;;11.99;66.34;100397.63;1580930;89;27488;-78
2022/04/22 09:35:25;;;;;;;6.08;5.20;;;;;;;12.27;65.98;100392.98;1578477;89;25903;-75
2022/04/22 09:43:39;;;;;;;;;;;;;;;12.22;61.98;100403.49;1576653;89;25396;-75
2022/04/22 09:46:06;;;;;;;5.42;4.10;;;;;;;12.25;63.63;100393.16;1545655;91;27474;-75
2022/04/22 09:48:48;;;;;;;6.53;4.67;;;;;;;12.15;60.33;100403.98;1568810;90;26466;-75
2022/04/22 09:51:24;;;;;;;6.25;4.83;;;;;;;11.97;60.28;100405.89;1569732;89;26537;-75
2022/04/22 09:54:05;;;;;;;6.10;4.75;;;;;;;11.86;61.21;100406.46;1568569;89;25845;-75
2022/04/22 09:56:34;;;;;;;5.00;4.50;;;;;;;11.98;63.04;100409.38;1569495;89;25970;-75
2022/04/22 09:59:24;;;;;;;5.17;4.40;;;;;;;12.03;61.50;100402.41;1556447;90;27494;-74
2022/04/22 10:01:51;;;;;;;5.28;4.78;;;;;;;12.03;62.32;100402.41;1557369;90;25914;-75
2022/04/22 10:04:20;;;;;;;5.60;5.00;;;;;;;12.15;63.51;100408.84;1570005;89;25886;-74
2022/04/22 10:06:50;;;;;;;5.40;4.90;;;;;;;12.22;63.42;100418.27;1566087;90;25979;-75
2022/04/22 10:09:18;;;;;;;7.35;4.80;;;;;;;12.32;62.97;100420.88;1559012;91;25926;-75
2022/04/22 10:11:52;;;;;;;5.75;4.80;;;;;;;12.39;62.75;100414.18;1536956;91;27486;-75
2022/04/22 10:14:32;;;;;;;6.78;4.92;;;;;;;12.44;62.83;100415.75;1558722;91;25738;-75
2022/04/22 10:17:00;;;;;;;6.50;5.60;;;;;;;12.59;64.23;100427.66;1536346;91;37372;-75
2022/04/22 10:19:26;;;;;;;6.40;5.08;;;;;;;12.80;63.01;100432.36;1558846;91;25957;-75
2022/04/22 10:21:53;;;;;;;5.53;5.03;;;;;;;12.69;60.55;100422.71;1558469;91;26546;-75
2022/04/22 10:24:21;;;;;;;6.60;5.62;;;;;;;12.58;61.65;100417.93;1558754;91;27474;-76
2022/04/22 10:26:49;;;;;;;7.72;5.28;;;;;;;12.54;61.83;100426.92;1557132;90;26220;-74
2022/04/22 10:29:16;;;;;;;5.62;5.12;;;;;;;12.40;61.03;100426.59;1560783;90;25828;-75
2022/04/22 10:31:42;;;;;;;5.30;4.83;;;;;;;12.30;60.79;100431.50;1564545;90;25922;-77
2022/04/22 10:34:09;;;;;;;5.08;4.58;;;;;;;12.27;61.61;100422.52;1569374;90;25667;-75
2022/04/22 10:36:37;;;;;;;8.18;3.92;;;;;;;12.38;61.01;100421.41;1565610;89;28439;-75
2022/04/22 10:39:04;;;;;;;4.95;4.45;;;;;;;12.49;59.96;100429.38;1568856;89;25824;-75
2022/04/22 10:41:49;;;;;;;5.83;4.75;;;;;;;12.67;60.59;100421.58;1573303;89;25913;-75
2022/04/22 10:47:15;;;;;;;7.28;5.60;;;;;;;12.67;60.52;100428.30;1557216;90;26620;-75
2022/04/22 10:49:46;;;;;;;6.30;5.70;;;;;;;12.66;58.97;100416.42;1579050;90;27570;-75
2022/04/22 10:52:20;;;;;;;6.67;5.42;;;;;;;12.51;60.71;100421.95;1573438;90;25917;-75
2022/04/22 10:54:58;;;;;;;6.45;5.10;;;;;;;12.34;58.70;100427.37;1569223;90;25785;-75
2022/04/22 10:57:32;;;;;;;7.42;5.28;;;;;;;12.12;57.76;100425.37;1570338;90;26564;-75
2022/04/22 11:00:10;;;;;;;5.83;5.20;;;;;;;12.02;59.73;100424.06;1576584;90;26097;-75
2022/04/22 11:02:41;;;;;;;7.65;5.25;;;;;;;12.08;61.06;100425.97;1564157;90;27725;-76
2022/04/22 11:05:25;;;;;;;6.20;5.60;;;;;;;12.23;60.79;100429.33;1573698;90;26183;-75
2022/04/22 11:07:58;;;;;;;6.87;5.83;;;;;;;12.24;60.63;100424.25;1570004;90;25784;-75
2022/04/22 11:10:51;;;;;;;5.87;5.35;;;;;;;12.32;60.70;100422.22;1574689;90;25814;-76
2022/04/22 11:13:35;;;;;;;5.92;5.33;;;;;;;12.59;62.71;100424.47;1573610;90;25813;-76
2022/04/22 11:16:15;;;;;;;5.85;5.25;;;;;;;12.74;59.03;100418.91;1565527;90;27609;-74
2022/04/22 11:18:44;;;;;;;5.95;5.35;;;;;;;12.70;59.50;100428.41;1570146;90;26040;-74
2022/04/22 11:21:21;;;;;;;4.62;4.22;;;;;;;12.56;58.71;100427.55;1574424;89;25983;-74
2022/04/22 11:23:47;;;;;;;5.95;5.30;;;;;;;12.42;57.97;100426.38;1553605;90;26594;-76
2022/04/22 11:26:16;;;;;;;6.28;5.47;;;;;;;12.26;57.24;100436.45;1561071;90;26000;-75
2022/04/22 11:28:45;;;;;;;4.83;4.33;;;;;;;12.11;57.85;100416.16;1567242;89;27501;-75
2022/04/22 11:31:13;;;;;;;7.53;5.20;;;;;;;12.04;57.85;100434.11;1558629;91;25924;-74
2022/04/22 11:33:56;;;;;;;4.95;4.45;;;;;;;12.02;59.20;100424.06;1558404;91;25875;-74
2022/04/22 11:36:24;;;;;;;5.83;4.97;;;;;;;12.01;58.87;100427.78;1558751;91;26475;-74
2022/04/22 11:38:53;;;;;;;6.45;4.33;;;;;;;11.93;57.98;100436.02;1558780;91;25835;-75
2022/04/22 11:41:20;;;;;;;5.80;4.72;;;;;;;11.86;59.13;100430.62;1559080;91;27470;-75
2022/04/22 11:43:47;;;;;;;4.55;4.12;;;;;;;11.89;59.88;100426.71;1559062;90;26129;-75
2022/04/22 11:46:17;;;;;;;4.70;4.28;;;;;;;11.95;59.51;100420.03;1547393;91;25404;-75
2022/04/22 11:48:49;;;;;;;4.10;3.70;;;;;;;12.00;59.50;100422.09;1579092;89;26622;-75
2022/04/22 11:51:19;;;;;;;7.70;4.50;;;;;;;12.05;59.56;100411.08;1585049;89;25979;-75
2022/04/22 11:53:51;;;;;;;5.90;5.12;;;;;;;12.06;58.93;100418.09;1555085;91;28611;-75
2022/04/22 11:56:24;;;;;;;4.50;4.10;;;;;;;12.03;58.95;100417.17;1542185;91;26669;-75
2022/04/22 11:58:56;;;;;;;5.78;4.97;;;;;;;11.96;58.49;100421.67;1582137;89;25571;-77
2022/04/22 12:06:58;;;;;;;4.92;4.40;;;;;;;11.86;59.76;100417.20;1579516;90;28101;-76
2022/04/22 12:09:25;;;;;;;5.30;4.80;;;;;;;11.94;60.14;100403.59;1564411;90;25832;-76
2022/04/22 12:11:52;;;;;;;4.75;4.28;;;;;;;12.06;60.44;100401.18;1559047;91;26624;-75
2022/04/22 12:14:26;;;;;;;5.20;4.70;;;;;;;12.13;57.68;100400.67;1558872;91;26012;-76
2022/04/22 12:17:01;;;;;;;8.90;6.17;;;;;;;12.11;58.13;100393.33;1557102;91;26125;-76
2022/04/22 12:19:28;;;;;;;6.45;4.75;;;;;;;12.13;58.94;100377.34;1541379;91;27559;-76
2022/04/22 12:21:55;;;;;;;4.60;4.20;;;;;;;12.18;57.38;100368.17;1564862;90;25815;-77
2022/04/22 12:24:21;;;;;;;5.10;4.60;;;;;;;12.13;58.30;100385.90;1572272;90;25936;-75
2022/04/22 12:26:50;;;;;;;5.37;4.87;;;;;;;12.12;58.46;100374.86;1564802;89;26637;-75
2022/04/22 12:29:22;;;;;;;5.80;5.20;;;;;;;12.13;58.72;100375.16;1564279;90;25927;-76
2022/04/22 12:31:55;;;;;;;5.58;5.08;;;;;;;12.18;58.99;100376.73;1574247;90;27468;-76
2022/04/22 12:34:39;;;;;;;6.58;5.47;;;;;;;12.23;59.40;100368.38;1554644;90;26512;-75
2022/04/22 12:37:03;;;;;;;5.55;5.00;;;;;;;12.33;59.81;100367.48;1557556;91;25881;-75